sensor_id;sensor_type;location;lat;lon;timestamp;P1;P2;P0
48531;PMS5003;34927;37.302;-121.982;2023-03-19T00:00:36;4;4;
48531;PMS5003;34927;37.302;-121.982;2023-03-19T00:01:41;8;4;
48531;PMS5003;34927;37.302;-121.982;2023-03-19T00:02:46;10;5;
48531;PMS5003;34927;37.302;-121.982;2023-03-19T00:03:51;9;6;
48531;PMS5003;34927;37.302;-121.982;2023-03-19T00:04:55;8;6;
48531;PMS5003;34927;37.302;-121.982;2023-03-19T00:06:01;7;5;
48531;PMS5003;34927;37.302;-121.982;2023-03-19T00:07:06;7;5;
48531;PMS5003;34927;37.302;-121.982;2023-03-19T00:08:11;5;5;
48531;PMS5003;34927;37.302;-121.982;2023-03-19T00:09:16;5;5;
48531;PMS5003;34927;37.302;-121.982;2023-03-19T00:10:20;6;6;
48531;PMS5003;34927;37.302;-121.982;2023-03-19T00:11:26;6;6;
48531;PMS5003;34927;37.302;-121.982;2023-03-19T00:12:31;6;6;
48531;PMS5003;34927;37.302;-121.982;2023-03-19T00:13:36;5;5;
48531;PMS5003;34927;37.302;-121.982;2023-03-19T00:14:41;5;5;
48531;PMS5003;34927;37.302;-121.982;2023-03-19T00:15:45;5;5;
48531;PMS5003;34927;37.302;-121.982;2023-03-19T00:16:50;5;5;
48531;PMS5003;34927;37.302;-121.982;2023-03-19T00:17:56;6;6;
48531;PMS5003;34927;37.302;-121.982;2023-03-19T00:19:02;6;6;
48531;PMS5003;34927;37.302;-121.982;2023-03-19T00:20:06;6;6;
48531;PMS5003;34927;37.302;-121.982;2023-03-19T00:21:16;6;6;
48531;PMS5003;34927;37.302;-121.982;2023-03-19T00:22:21;6;6;
48531;PMS5003;34927;37.302;-121.982;2023-03-19T00:23:26;5;5;
48531;PMS5003;34927;37.302;-121.982;2023-03-19T00:24:31;5;5;
48531;PMS5003;34927;37.302;-121.982;2023-03-19T00:25:35;5;5;
48531;PMS5003;34927;37.302;-121.982;2023-03-19T00:26:40;5;5;
48531;PMS5003;34927;37.302;-121.982;2023-03-19T00:27:45;5;5;
48531;PMS5003;34927;37.302;-121.982;2023-03-19T00:28:51;5;5;
48531;PMS5003;34927;37.302;-121.982;2023-03-19T00:29:56;5;5;
48531;PMS5003;34927;37.302;-121.982;2023-03-19T00:31:05;5;5;
48531;PMS5003;34927;37.302;-121.982;2023-03-19T00:32:10;6;6;
48531;PMS5003;34927;37.302;-121.982;2023-03-19T00:33:16;6;6;
48531;PMS5003;34927;37.302;-121.982;2023-03-19T00:34:21;6;6;
48531;PMS5003;34927;37.302;-121.982;2023-03-19T00:35:25;5;5;
48531;PMS5003;34927;37.302;-121.982;2023-03-19T00:36:31;5;5;
48531;PMS5003;34927;37.302;-121.982;2023-03-19T00:37:36;5;5;
48531;PMS5003;34927;37.302;-121.982;2023-03-19T00:38:41;6;6;
48531;PMS5003;34927;37.302;-121.982;2023-03-19T00:39:46;6;6;
48531;PMS5003;34927;37.302;-121.982;2023-03-19T00:40:51;6;6;
48531;PMS5003;34927;37.302;-121.982;2023-03-19T00:41:56;6;6;
48531;PMS5003;34927;37.302;-121.982;2023-03-19T00:43:01;6;6;
48531;PMS5003;34927;37.302;-121.982;2023-03-19T00:44:05;6;6;
48531;PMS5003;34927;37.302;-121.982;2023-03-19T00:45:11;6;6;
48531;PMS5003;34927;37.302;-121.982;2023-03-19T00:46:16;6;6;
48531;PMS5003;34927;37.302;-121.982;2023-03-19T00:47:21;6;6;
48531;PMS5003;34927;37.302;-121.982;2023-03-19T00:48:25;5;5;
48531;PMS5003;34927;37.302;-121.982;2023-03-19T00:49:31;5;5;
48531;PMS5003;34927;37.302;-121.982;2023-03-19T00:50:35;5;5;
48531;PMS5003;34927;37.302;-121.982;2023-03-19T00:51:40;6;5;
48531;PMS5003;34927;37.302;-121.982;2023-03-19T00:52:46;6;5;
48531;PMS5003;34927;37.302;-121.982;2023-03-19T00:53:51;6;5;
48531;PMS5003;34927;37.302;-121.982;2023-03-19T00:54:56;6;5;
48531;PMS5003;34927;37.302;-121.982;2023-03-19T00:56:01;5;4;
48531;PMS5003;34927;37.302;-121.982;2023-03-19T00:57:06;5;4;
48531;PMS5003;34927;37.302;-121.982;2023-03-19T00:58:11;5;4;
48531;PMS5003;34927;37.302;-121.982;2023-03-19T00:59:15;5;4;
48531;PMS5003;34927;37.302;-121.982;2023-03-19T01:00:20;1;1;
48531;PMS5003;34927;37.302;-121.982;2023-03-19T01:01:25;3;3;
48531;PMS5003;34927;37.302;-121.982;2023-03-19T01:02:31;4;4;
48531;PMS5003;34927;37.302;-121.982;2023-03-19T01:03:36;6;4;
48531;PMS5003;34927;37.302;-121.982;2023-03-19T01:04:40;6;4;
48531;PMS5003;34927;37.302;-121.982;2023-03-19T01:05:46;5;3;
48531;PMS5003;34927;37.302;-121.982;2023-03-19T01:06:51;4;3;
48531;PMS5003;34927;37.302;-121.982;2023-03-19T01:07:56;4;3;
48531;PMS5003;34927;37.302;-121.982;2023-03-19T01:09:01;3;3;
48531;PMS5003;34927;37.302;-121.982;2023-03-19T01:10:06;4;4;
48531;PMS5003;34927;37.302;-121.982;2023-03-19T01:11:11;4;4;
48531;PMS5003;34927;37.302;-121.982;2023-03-19T01:12:16;4;4;
48531;PMS5003;34927;37.302;-121.982;2023-03-19T01:13:21;4;4;
48531;PMS5003;34927;37.302;-121.982;2023-03-19T01:14:26;4;4;
48531;PMS5003;34927;37.302;-121.982;2023-03-19T01:15:34;4;4;
48531;PMS5003;34927;37.302;-121.982;2023-03-19T01:16:41;5;5;
48531;PMS5003;34927;37.302;-121.982;2023-03-19T01:17:46;5;5;
48531;PMS5003;34927;37.302;-121.982;2023-03-19T01:18:51;5;5;
48531;PMS5003;34927;37.302;-121.982;2023-03-19T01:19:56;5;5;
48531;PMS5003;34927;37.302;-121.982;2023-03-19T01:21:01;5;5;
48531;PMS5003;34927;37.302;-121.982;2023-03-19T01:22:06;5;5;
48531;PMS5003;34927;37.302;-121.982;2023-03-19T01:23:11;4;4;
48531;PMS5003;34927;37.302;-121.982;2023-03-19T01:24:16;4;4;
48531;PMS5003;34927;37.302;-121.982;2023-03-19T01:25:20;4;4;
48531;PMS5003;34927;37.302;-121.982;2023-03-19T01:26:26;4;4;
48531;PMS5003;34927;37.302;-121.982;2023-03-19T01:27:30;4;4;
48531;PMS5003;34927;37.302;-121.982;2023-03-19T01:28:36;4;4;
48531;PMS5003;34927;37.302;-121.982;2023-03-19T01:29:41;5;5;
48531;PMS5003;34927;37.302;-121.982;2023-03-19T01:30:46;5;5;
48531;PMS5003;34927;37.302;-121.982;2023-03-19T01:31:50;5;5;
48531;PMS5003;34927;37.302;-121.982;2023-03-19T01:32:56;4;4;
48531;PMS5003;34927;37.302;-121.982;2023-03-19T01:34:01;4;4;
48531;PMS5003;34927;37.302;-121.982;2023-03-19T01:35:06;4;4;
48531;PMS5003;34927;37.302;-121.982;2023-03-19T01:36:11;5;5;
48531;PMS5003;34927;37.302;-121.982;2023-03-19T01:37:15;5;5;
48531;PMS5003;34927;37.302;-121.982;2023-03-19T01:38:21;5;5;
48531;PMS5003;34927;37.302;-121.982;2023-03-19T01:39:26;5;5;
48531;PMS5003;34927;37.302;-121.982;2023-03-19T01:40:31;5;5;
48531;PMS5003;34927;37.302;-121.982;2023-03-19T01:41:36;5;5;
48531;PMS5003;34927;37.302;-121.982;2023-03-19T01:42:53;5;5;
48531;PMS5003;34927;37.302;-121.982;2023-03-19T01:44:01;5;5;
48531;PMS5003;34927;37.302;-121.982;2023-03-19T01:46:31;4;4;
48531;PMS5003;34927;37.302;-121.982;2023-03-19T01:47:37;4;4;
48531;PMS5003;34927;37.302;-121.982;2023-03-19T01:48:47;4;4;
48531;PMS5003;34927;37.302;-121.982;2023-03-19T01:49:56;4;4;
48531;PMS5003;34927;37.302;-121.982;2023-03-19T01:51:01;4;4;
48531;PMS5003;34927;37.302;-121.982;2023-03-19T01:52:06;4;4;
48531;PMS5003;34927;37.302;-121.982;2023-03-19T01:53:11;4;4;
48531;PMS5003;34927;37.302;-121.982;2023-03-19T01:54:17;4;4;
48531;PMS5003;34927;37.302;-121.982;2023-03-19T01:55:25;4;4;
48531;PMS5003;34927;37.302;-121.982;2023-03-19T01:56:31;3;3;
48531;PMS5003;34927;37.302;-121.982;2023-03-19T01:57:41;3;3;
48531;PMS5003;34927;37.302;-121.982;2023-03-19T01:58:46;3;3;
48531;PMS5003;34927;37.302;-121.982;2023-03-19T01:59:56;3;3;
48531;PMS5003;34927;37.302;-121.982;2023-03-19T02:01:01;1;1;
48531;PMS5003;34927;37.302;-121.982;2023-03-19T02:02:07;4;4;
48531;PMS5003;34927;37.302;-121.982;2023-03-19T02:03:15;5;5;
48531;PMS5003;34927;37.302;-121.982;2023-03-19T02:04:21;5;5;
48531;PMS5003;34927;37.302;-121.982;2023-03-19T02:05:26;6;6;
48531;PMS5003;34927;37.302;-121.982;2023-03-19T02:06:31;5;5;
48531;PMS5003;34927;37.302;-121.982;2023-03-19T02:07:36;6;6;
48531;PMS5003;34927;37.302;-121.982;2023-03-19T02:08:41;5;5;
48531;PMS5003;34927;37.302;-121.982;2023-03-19T02:09:47;5;5;
48531;PMS5003;34927;37.302;-121.982;2023-03-19T02:10:51;4;4;
48531;PMS5003;34927;37.302;-121.982;2023-03-19T02:11:56;4;4;
48531;PMS5003;34927;37.302;-121.982;2023-03-19T02:13:02;4;4;
48531;PMS5003;34927;37.302;-121.982;2023-03-19T02:14:05;4;4;
48531;PMS5003;34927;37.302;-121.982;2023-03-19T02:15:11;4;4;
48531;PMS5003;34927;37.302;-121.982;2023-03-19T02:16:15;4;4;
48531;PMS5003;34927;37.302;-121.982;2023-03-19T02:17:21;4;4;
48531;PMS5003;34927;37.302;-121.982;2023-03-19T02:18:25;6;5;
48531;PMS5003;34927;37.302;-121.982;2023-03-19T02:19:33;6;5;
48531;PMS5003;34927;37.302;-121.982;2023-03-19T02:20:43;6;4;
48531;PMS5003;34927;37.302;-121.982;2023-03-19T02:21:51;6;5;
48531;PMS5003;34927;37.302;-121.982;2023-03-19T02:23:00;6;5;
48531;PMS5003;34927;37.302;-121.982;2023-03-19T02:24:12;6;5;
48531;PMS5003;34927;37.302;-121.982;2023-03-19T02:25:23;6;5;
48531;PMS5003;34927;37.302;-121.982;2023-03-19T02:26:31;6;5;
48531;PMS5003;34927;37.302;-121.982;2023-03-19T02:27:36;6;5;
48531;PMS5003;34927;37.302;-121.982;2023-03-19T02:28:41;6;5;
48531;PMS5003;34927;37.302;-121.982;2023-03-19T02:29:46;6;5;
48531;PMS5003;34927;37.302;-121.982;2023-03-19T02:30:51;7;6;
48531;PMS5003;34927;37.302;-121.982;2023-03-19T02:31:55;7;6;
48531;PMS5003;34927;37.302;-121.982;2023-03-19T02:33:01;7;6;
48531;PMS5003;34927;37.302;-121.982;2023-03-19T02:34:06;6;5;
48531;PMS5003;34927;37.302;-121.982;2023-03-19T02:35:21;5;5;
48531;PMS5003;34927;37.302;-121.982;2023-03-19T02:36:26;5;5;
48531;PMS5003;34927;37.302;-121.982;2023-03-19T02:37:36;5;5;
48531;PMS5003;34927;37.302;-121.982;2023-03-19T02:38:42;5;5;
48531;PMS5003;34927;37.302;-121.982;2023-03-19T02:39:48;5;5;
48531;PMS5003;34927;37.302;-121.982;2023-03-19T02:40:56;5;5;
48531;PMS5003;34927;37.302;-121.982;2023-03-19T02:42:06;5;5;
48531;PMS5003;34927;37.302;-121.982;2023-03-19T02:43:11;5;5;
48531;PMS5003;34927;37.302;-121.982;2023-03-19T02:44:15;4;4;
48531;PMS5003;34927;37.302;-121.982;2023-03-19T02:45:21;4;4;
48531;PMS5003;34927;37.302;-121.982;2023-03-19T02:46:31;4;4;
48531;PMS5003;34927;37.302;-121.982;2023-03-19T02:47:36;4;4;
48531;PMS5003;34927;37.302;-121.982;2023-03-19T02:48:41;4;4;
48531;PMS5003;34927;37.302;-121.982;2023-03-19T02:49:45;4;4;
48531;PMS5003;34927;37.302;-121.982;2023-03-19T02:50:52;5;5;
48531;PMS5003;34927;37.302;-121.982;2023-03-19T02:51:56;5;5;
48531;PMS5003;34927;37.302;-121.982;2023-03-19T02:53:00;5;5;
48531;PMS5003;34927;37.302;-121.982;2023-03-19T02:54:06;5;5;
48531;PMS5003;34927;37.302;-121.982;2023-03-19T02:55:11;5;5;
48531;PMS5003;34927;37.302;-121.982;2023-03-19T02:56:15;5;5;
48531;PMS5003;34927;37.302;-121.982;2023-03-19T02:57:21;5;5;
48531;PMS5003;34927;37.302;-121.982;2023-03-19T02:58:26;5;5;
48531;PMS5003;34927;37.302;-121.982;2023-03-19T02:59:31;5;5;
48531;PMS5003;34927;37.302;-121.982;2023-03-19T03:00:36;4;4;
48531;PMS5003;34927;37.302;-121.982;2023-03-19T03:01:41;5;5;
48531;PMS5003;34927;37.302;-121.982;2023-03-19T03:02:45;5;5;
48531;PMS5003;34927;37.302;-121.982;2023-03-19T03:03:50;4;4;
48531;PMS5003;34927;37.302;-121.982;2023-03-19T03:04:56;4;4;
48531;PMS5003;34927;37.302;-121.982;2023-03-19T03:06:01;4;4;
48531;PMS5003;34927;37.302;-121.982;2023-03-19T03:07:06;5;5;
48531;PMS5003;34927;37.302;-121.982;2023-03-19T03:08:11;5;4;
48531;PMS5003;34927;37.302;-121.982;2023-03-19T03:09:16;6;6;
48531;PMS5003;34927;37.302;-121.982;2023-03-19T03:10:20;7;6;
48531;PMS5003;34927;37.302;-121.982;2023-03-19T03:11:26;6;6;
48531;PMS5003;34927;37.302;-121.982;2023-03-19T03:12:30;5;5;
48531;PMS5003;34927;37.302;-121.982;2023-03-19T03:13:36;5;5;
48531;PMS5003;34927;37.302;-121.982;2023-03-19T03:14:41;5;5;
48531;PMS5003;34927;37.302;-121.982;2023-03-19T03:15:45;5;5;
48531;PMS5003;34927;37.302;-121.982;2023-03-19T03:16:51;5;5;
48531;PMS5003;34927;37.302;-121.982;2023-03-19T03:17:56;5;5;
48531;PMS5003;34927;37.302;-121.982;2023-03-19T03:19:01;7;5;
48531;PMS5003;34927;37.302;-121.982;2023-03-19T03:20:06;7;6;
48531;PMS5003;34927;37.302;-121.982;2023-03-19T03:21:11;7;6;
48531;PMS5003;34927;37.302;-121.982;2023-03-19T03:22:15;7;6;
48531;PMS5003;34927;37.302;-121.982;2023-03-19T03:23:21;7;5;
48531;PMS5003;34927;37.302;-121.982;2023-03-19T03:24:26;7;5;
48531;PMS5003;34927;37.302;-121.982;2023-03-19T03:25:31;6;5;
48531;PMS5003;34927;37.302;-121.982;2023-03-19T03:26:36;6;5;
48531;PMS5003;34927;37.302;-121.982;2023-03-19T03:27:41;6;5;
48531;PMS5003;34927;37.302;-121.982;2023-03-19T03:28:46;6;5;
48531;PMS5003;34927;37.302;-121.982;2023-03-19T03:29:50;6;5;
48531;PMS5003;34927;37.302;-121.982;2023-03-19T03:30:58;6;5;
48531;PMS5003;34927;37.302;-121.982;2023-03-19T03:32:01;5;4;
48531;PMS5003;34927;37.302;-121.982;2023-03-19T03:33:05;5;4;
48531;PMS5003;34927;37.302;-121.982;2023-03-19T03:34:10;5;4;
48531;PMS5003;34927;37.302;-121.982;2023-03-19T03:35:16;5;5;
48531;PMS5003;34927;37.302;-121.982;2023-03-19T03:36:21;5;5;
48531;PMS5003;34927;37.302;-121.982;2023-03-19T03:37:25;4;4;
48531;PMS5003;34927;37.302;-121.982;2023-03-19T03:38:31;4;4;
48531;PMS5003;34927;37.302;-121.982;2023-03-19T03:39:36;4;4;
48531;PMS5003;34927;37.302;-121.982;2023-03-19T03:40:41;5;5;
48531;PMS5003;34927;37.302;-121.982;2023-03-19T03:41:46;4;4;
48531;PMS5003;34927;37.302;-121.982;2023-03-19T03:42:50;4;4;
48531;PMS5003;34927;37.302;-121.982;2023-03-19T03:43:56;5;5;
48531;PMS5003;34927;37.302;-121.982;2023-03-19T03:45:00;5;5;
48531;PMS5003;34927;37.302;-121.982;2023-03-19T03:46:06;5;5;
48531;PMS5003;34927;37.302;-121.982;2023-03-19T03:47:15;6;6;
48531;PMS5003;34927;37.302;-121.982;2023-03-19T03:48:21;6;6;
48531;PMS5003;34927;37.302;-121.982;2023-03-19T03:49:26;6;6;
48531;PMS5003;34927;37.302;-121.982;2023-03-19T03:50:31;6;6;
48531;PMS5003;34927;37.302;-121.982;2023-03-19T03:51:36;6;6;
48531;PMS5003;34927;37.302;-121.982;2023-03-19T03:52:40;6;6;
48531;PMS5003;34927;37.302;-121.982;2023-03-19T03:53:46;5;5;
48531;PMS5003;34927;37.302;-121.982;2023-03-19T03:54:50;5;5;
48531;PMS5003;34927;37.302;-121.982;2023-03-19T03:55:56;5;5;
48531;PMS5003;34927;37.302;-121.982;2023-03-19T03:57:01;5;5;
48531;PMS5003;34927;37.302;-121.982;2023-03-19T03:58:05;5;5;
48531;PMS5003;34927;37.302;-121.982;2023-03-19T03:59:11;5;5;
48531;PMS5003;34927;37.302;-121.982;2023-03-19T04:00:16;4;4;
48531;PMS5003;34927;37.302;-121.982;2023-03-19T04:01:21;7;7;
48531;PMS5003;34927;37.302;-121.982;2023-03-19T04:02:26;6;6;
48531;PMS5003;34927;37.302;-121.982;2023-03-19T04:03:31;6;6;
48531;PMS5003;34927;37.302;-121.982;2023-03-19T04:04:36;5;5;
48531;PMS5003;34927;37.302;-121.982;2023-03-19T04:05:41;5;5;
48531;PMS5003;34927;37.302;-121.982;2023-03-19T04:06:46;5;5;
48531;PMS5003;34927;37.302;-121.982;2023-03-19T04:07:51;6;6;
48531;PMS5003;34927;37.302;-121.982;2023-03-19T04:08:55;5;5;
48531;PMS5003;34927;37.302;-121.982;2023-03-19T04:10:01;6;6;
48531;PMS5003;34927;37.302;-121.982;2023-03-19T04:11:06;5;5;
48531;PMS5003;34927;37.302;-121.982;2023-03-19T04:12:11;5;5;
48531;PMS5003;34927;37.302;-121.982;2023-03-19T04:13:16;5;5;
48531;PMS5003;34927;37.302;-121.982;2023-03-19T04:14:21;6;4;
48531;PMS5003;34927;37.302;-121.982;2023-03-19T04:15:26;6;4;
48531;PMS5003;34927;37.302;-121.982;2023-03-19T04:16:30;6;5;
48531;PMS5003;34927;37.302;-121.982;2023-03-19T04:17:36;6;4;
48531;PMS5003;34927;37.302;-121.982;2023-03-19T04:18:41;6;4;
48531;PMS5003;34927;37.302;-121.982;2023-03-19T04:19:46;6;4;
48531;PMS5003;34927;37.302;-121.982;2023-03-19T04:20:50;6;4;
48531;PMS5003;34927;37.302;-121.982;2023-03-19T04:21:56;6;4;
48531;PMS5003;34927;37.302;-121.982;2023-03-19T04:23:01;7;4;
48531;PMS5003;34927;37.302;-121.982;2023-03-19T04:24:06;7;4;
48531;PMS5003;34927;37.302;-121.982;2023-03-19T04:25:10;7;4;
48531;PMS5003;34927;37.302;-121.982;2023-03-19T04:26:16;7;4;
48531;PMS5003;34927;37.302;-121.982;2023-03-19T04:27:21;7;4;
48531;PMS5003;34927;37.302;-121.982;2023-03-19T04:28:26;7;4;
48531;PMS5003;34927;37.302;-121.982;2023-03-19T04:29:31;7;3;
48531;PMS5003;34927;37.302;-121.982;2023-03-19T04:30:35;7;3;
48531;PMS5003;34927;37.302;-121.982;2023-03-19T04:31:41;6;5;
48531;PMS5003;34927;37.302;-121.982;2023-03-19T04:32:46;6;4;
48531;PMS5003;34927;37.302;-121.982;2023-03-19T04:33:51;6;4;
48531;PMS5003;34927;37.302;-121.982;2023-03-19T04:34:55;6;4;
48531;PMS5003;34927;37.302;-121.982;2023-03-19T04:36:01;6;4;
48531;PMS5003;34927;37.302;-121.982;2023-03-19T04:37:05;6;4;
48531;PMS5003;34927;37.302;-121.982;2023-03-19T04:38:11;6;4;
48531;PMS5003;34927;37.302;-121.982;2023-03-19T04:39:16;4;4;
48531;PMS5003;34927;37.302;-121.982;2023-03-19T04:40:21;4;4;
48531;PMS5003;34927;37.302;-121.982;2023-03-19T04:41:26;4;4;
48531;PMS5003;34927;37.302;-121.982;2023-03-19T04:42:31;5;5;
48531;PMS5003;34927;37.302;-121.982;2023-03-19T04:43:36;5;5;
48531;PMS5003;34927;37.302;-121.982;2023-03-19T04:44:40;3;3;
48531;PMS5003;34927;37.302;-121.982;2023-03-19T04:45:46;4;3;
48531;PMS5003;34927;37.302;-121.982;2023-03-19T04:46:51;5;4;
48531;PMS5003;34927;37.302;-121.982;2023-03-19T04:47:55;4;3;
48531;PMS5003;34927;37.302;-121.982;2023-03-19T04:49:01;4;3;
48531;PMS5003;34927;37.302;-121.982;2023-03-19T04:50:07;5;4;
48531;PMS5003;34927;37.302;-121.982;2023-03-19T04:51:10;5;4;
48531;PMS5003;34927;37.302;-121.982;2023-03-19T04:52:16;4;3;
48531;PMS5003;34927;37.302;-121.982;2023-03-19T04:53:20;4;3;
48531;PMS5003;34927;37.302;-121.982;2023-03-19T04:54:26;4;3;
48531;PMS5003;34927;37.302;-121.982;2023-03-19T04:55:30;4;3;
48531;PMS5003;34927;37.302;-121.982;2023-03-19T04:56:36;5;4;
48531;PMS5003;34927;37.302;-121.982;2023-03-19T04:57:41;5;4;
48531;PMS5003;34927;37.302;-121.982;2023-03-19T04:58:46;4;3;
48531;PMS5003;34927;37.302;-121.982;2023-03-19T04:59:50;4;3;
48531;PMS5003;34927;37.302;-121.982;2023-03-19T05:00:56;4;4;
48531;PMS5003;34927;37.302;-121.982;2023-03-19T05:02:01;5;5;
48531;PMS5003;34927;37.302;-121.982;2023-03-19T05:03:05;6;6;
48531;PMS5003;34927;37.302;-121.982;2023-03-19T05:04:10;6;6;
48531;PMS5003;34927;37.302;-121.982;2023-03-19T05:05:16;8;6;
48531;PMS5003;34927;37.302;-121.982;2023-03-19T05:06:21;6;5;
48531;PMS5003;34927;37.302;-121.982;2023-03-19T05:07:25;6;5;
48531;PMS5003;34927;37.302;-121.982;2023-03-19T05:08:31;5;3;
48531;PMS5003;34927;37.302;-121.982;2023-03-19T05:09:35;4;3;
48531;PMS5003;34927;37.302;-121.982;2023-03-19T05:10:41;2;2;
48531;PMS5003;34927;37.302;-121.982;2023-03-19T05:11:45;3;3;
48531;PMS5003;34927;37.302;-121.982;2023-03-19T05:12:51;3;3;
48531;PMS5003;34927;37.302;-121.982;2023-03-19T05:13:56;3;3;
48531;PMS5003;34927;37.302;-121.982;2023-03-19T05:15:01;3;3;
48531;PMS5003;34927;37.302;-121.982;2023-03-19T05:16:06;3;3;
48531;PMS5003;34927;37.302;-121.982;2023-03-19T05:17:11;4;4;
48531;PMS5003;34927;37.302;-121.982;2023-03-19T05:18:16;4;4;
48531;PMS5003;34927;37.302;-121.982;2023-03-19T05:19:21;4;4;
48531;PMS5003;34927;37.302;-121.982;2023-03-19T05:20:26;4;4;
48531;PMS5003;34927;37.302;-121.982;2023-03-19T05:21:30;4;4;
48531;PMS5003;34927;37.302;-121.982;2023-03-19T05:22:36;4;4;
48531;PMS5003;34927;37.302;-121.982;2023-03-19T05:23:41;4;4;
48531;PMS5003;34927;37.302;-121.982;2023-03-19T05:24:46;4;4;
48531;PMS5003;34927;37.302;-121.982;2023-03-19T05:25:51;4;4;
48531;PMS5003;34927;37.302;-121.982;2023-03-19T05:26:56;4;4;
48531;PMS5003;34927;37.302;-121.982;2023-03-19T05:28:01;4;4;
48531;PMS5003;34927;37.302;-121.982;2023-03-19T05:29:06;4;4;
48531;PMS5003;34927;37.302;-121.982;2023-03-19T05:30:11;4;4;
48531;PMS5003;34927;37.302;-121.982;2023-03-19T05:31:16;4;4;
48531;PMS5003;34927;37.302;-121.982;2023-03-19T05:32:21;5;5;
48531;PMS5003;34927;37.302;-121.982;2023-03-19T05:33:25;5;5;
48531;PMS5003;34927;37.302;-121.982;2023-03-19T05:34:31;5;5;
48531;PMS5003;34927;37.302;-121.982;2023-03-19T05:35:36;5;5;
48531;PMS5003;34927;37.302;-121.982;2023-03-19T05:36:41;5;5;
48531;PMS5003;34927;37.302;-121.982;2023-03-19T05:37:45;5;5;
48531;PMS5003;34927;37.302;-121.982;2023-03-19T05:38:51;5;5;
48531;PMS5003;34927;37.302;-121.982;2023-03-19T05:39:56;5;5;
48531;PMS5003;34927;37.302;-121.982;2023-03-19T05:41:02;5;5;
48531;PMS5003;34927;37.302;-121.982;2023-03-19T05:42:06;5;5;
48531;PMS5003;34927;37.302;-121.982;2023-03-19T05:43:11;5;5;
48531;PMS5003;34927;37.302;-121.982;2023-03-19T05:44:15;5;5;
48531;PMS5003;34927;37.302;-121.982;2023-03-19T05:45:21;5;5;
48531;PMS5003;34927;37.302;-121.982;2023-03-19T05:46:26;5;5;
48531;PMS5003;34927;37.302;-121.982;2023-03-19T05:47:31;4;4;
48531;PMS5003;34927;37.302;-121.982;2023-03-19T05:48:37;4;4;
48531;PMS5003;34927;37.302;-121.982;2023-03-19T05:49:41;4;4;
48531;PMS5003;34927;37.302;-121.982;2023-03-19T05:50:47;4;4;
48531;PMS5003;34927;37.302;-121.982;2023-03-19T05:51:51;4;4;
48531;PMS5003;34927;37.302;-121.982;2023-03-19T05:52:56;3;3;
48531;PMS5003;34927;37.302;-121.982;2023-03-19T05:54:01;3;3;
48531;PMS5003;34927;37.302;-121.982;2023-03-19T05:55:06;3;3;
48531;PMS5003;34927;37.302;-121.982;2023-03-19T05:56:10;3;3;
48531;PMS5003;34927;37.302;-121.982;2023-03-19T05:57:16;3;3;
48531;PMS5003;34927;37.302;-121.982;2023-03-19T05:58:21;3;3;
48531;PMS5003;34927;37.302;-121.982;2023-03-19T05:59:26;4;4;
48531;PMS5003;34927;37.302;-121.982;2023-03-19T06:00:31;2;2;
48531;PMS5003;34927;37.302;-121.982;2023-03-19T06:01:36;4;4;
48531;PMS5003;34927;37.302;-121.982;2023-03-19T06:02:41;7;4;
48531;PMS5003;34927;37.302;-121.982;2023-03-19T06:03:46;5;3;
48531;PMS5003;34927;37.302;-121.982;2023-03-19T06:04:50;5;3;
48531;PMS5003;34927;37.302;-121.982;2023-03-19T06:05:56;5;3;
48531;PMS5003;34927;37.302;-121.982;2023-03-19T06:07:01;5;3;
48531;PMS5003;34927;37.302;-121.982;2023-03-19T06:08:05;4;3;
48531;PMS5003;34927;37.302;-121.982;2023-03-19T06:09:11;5;4;
48531;PMS5003;34927;37.302;-121.982;2023-03-19T06:10:16;7;4;
48531;PMS5003;34927;37.302;-121.982;2023-03-19T06:11:20;5;4;
48531;PMS5003;34927;37.302;-121.982;2023-03-19T06:12:32;5;4;
48531;PMS5003;34927;37.302;-121.982;2023-03-19T06:13:36;6;4;
48531;PMS5003;34927;37.302;-121.982;2023-03-19T06:14:40;6;4;
48531;PMS5003;34927;37.302;-121.982;2023-03-19T06:15:46;6;4;
48531;PMS5003;34927;37.302;-121.982;2023-03-19T06:16:51;5;4;
48531;PMS5003;34927;37.302;-121.982;2023-03-19T06:17:56;5;4;
48531;PMS5003;34927;37.302;-121.982;2023-03-19T06:19:01;6;4;
48531;PMS5003;34927;37.302;-121.982;2023-03-19T06:20:07;6;4;
48531;PMS5003;34927;37.302;-121.982;2023-03-19T06:21:11;5;4;
48531;PMS5003;34927;37.302;-121.982;2023-03-19T06:22:16;5;4;
48531;PMS5003;34927;37.302;-121.982;2023-03-19T06:23:21;4;4;
48531;PMS5003;34927;37.302;-121.982;2023-03-19T06:24:25;4;4;
48531;PMS5003;34927;37.302;-121.982;2023-03-19T06:25:31;4;4;
48531;PMS5003;34927;37.302;-121.982;2023-03-19T06:26:36;4;4;
48531;PMS5003;34927;37.302;-121.982;2023-03-19T06:27:41;4;4;
48531;PMS5003;34927;37.302;-121.982;2023-03-19T06:28:46;4;4;
48531;PMS5003;34927;37.302;-121.982;2023-03-19T06:29:51;4;4;
48531;PMS5003;34927;37.302;-121.982;2023-03-19T06:30:56;4;4;
48531;PMS5003;34927;37.302;-121.982;2023-03-19T06:32:01;4;4;
48531;PMS5003;34927;37.302;-121.982;2023-03-19T06:33:06;4;4;
48531;PMS5003;34927;37.302;-121.982;2023-03-19T06:34:11;4;4;
48531;PMS5003;34927;37.302;-121.982;2023-03-19T06:35:16;4;4;
48531;PMS5003;34927;37.302;-121.982;2023-03-19T06:36:21;4;4;
48531;PMS5003;34927;37.302;-121.982;2023-03-19T06:37:26;4;4;
48531;PMS5003;34927;37.302;-121.982;2023-03-19T06:38:31;4;4;
48531;PMS5003;34927;37.302;-121.982;2023-03-19T06:39:35;4;4;
48531;PMS5003;34927;37.302;-121.982;2023-03-19T06:40:41;4;4;
48531;PMS5003;34927;37.302;-121.982;2023-03-19T06:41:46;3;3;
48531;PMS5003;34927;37.302;-121.982;2023-03-19T06:42:50;4;4;
48531;PMS5003;34927;37.302;-121.982;2023-03-19T06:43:55;4;4;
48531;PMS5003;34927;37.302;-121.982;2023-03-19T06:45:01;5;5;
48531;PMS5003;34927;37.302;-121.982;2023-03-19T06:46:06;5;5;
48531;PMS5003;34927;37.302;-121.982;2023-03-19T06:47:11;5;5;
48531;PMS5003;34927;37.302;-121.982;2023-03-19T06:48:16;5;5;
48531;PMS5003;34927;37.302;-121.982;2023-03-19T06:49:20;5;5;
48531;PMS5003;34927;37.302;-121.982;2023-03-19T06:50:26;5;5;
48531;PMS5003;34927;37.302;-121.982;2023-03-19T06:51:30;5;5;
48531;PMS5003;34927;37.302;-121.982;2023-03-19T06:52:36;5;5;
48531;PMS5003;34927;37.302;-121.982;2023-03-19T06:53:41;5;5;
48531;PMS5003;34927;37.302;-121.982;2023-03-19T06:54:46;5;5;
48531;PMS5003;34927;37.302;-121.982;2023-03-19T06:55:51;6;6;
48531;PMS5003;34927;37.302;-121.982;2023-03-19T06:56:56;6;6;
48531;PMS5003;34927;37.302;-121.982;2023-03-19T06:58:00;6;6;
48531;PMS5003;34927;37.302;-121.982;2023-03-19T06:59:06;6;6;
48531;PMS5003;34927;37.302;-121.982;2023-03-19T07:00:11;6;6;
48531;PMS5003;34927;37.302;-121.982;2023-03-19T07:01:16;4;4;
48531;PMS5003;34927;37.302;-121.982;2023-03-19T07:02:21;3;3;
48531;PMS5003;34927;37.302;-121.982;2023-03-19T07:03:26;4;4;
48531;PMS5003;34927;37.302;-121.982;2023-03-19T07:04:31;5;4;
48531;PMS5003;34927;37.302;-121.982;2023-03-19T07:05:35;5;4;
48531;PMS5003;34927;37.302;-121.982;2023-03-19T07:06:41;5;4;
48531;PMS5003;34927;37.302;-121.982;2023-03-19T07:07:45;6;5;